createdAt,value
2023-03-02T00:01:08.351Z,99574.09
2023-03-02T00:03:36.293Z,99573.94
2023-03-02T00:06:03.614Z,99567.91
2023-03-02T00:08:30.354Z,99570.63
2023-03-02T00:10:57.413Z,99571.41
2023-03-02T00:13:24.487Z,99572.47
2023-03-02T00:15:51.658Z,99569.91
2023-03-02T00:18:18.460Z,99563.88
2023-03-02T00:20:45.531Z,99565.78
2023-03-02T00:23:12.266Z,99564.91
2023-03-02T00:25:40.216Z,99560.72
2023-03-02T00:28:06.970Z,99567.75
2023-03-02T00:30:34.058Z,99563.53
2023-03-02T00:33:00.844Z,99556.25
2023-03-02T00:35:28.025Z,99557.28
2023-03-02T00:37:54.792Z,99556.59
2023-03-02T00:40:21.836Z,99553.06
2023-03-02T00:42:48.601Z,99569.00
2023-03-02T00:45:15.720Z,99563.94
2023-03-02T00:47:42.575Z,99563.06
2023-03-02T00:50:10.515Z,99549.94
2023-03-02T00:52:37.307Z,99548.91
2023-03-02T00:55:04.708Z,99547.38
2023-03-02T00:57:31.465Z,99544.88
2023-03-02T00:59:58.679Z,99540.31
2023-03-02T01:02:25.596Z,99542.16
2023-03-02T01:04:53.386Z,99537.91
2023-03-02T01:07:26.300Z,99539.88
2023-03-02T01:09:53.332Z,99538.94
2023-03-02T01:12:20.150Z,99530.22
2023-03-02T01:14:48.018Z,99522.19
2023-03-02T01:17:14.952Z,99524.00
2023-03-02T01:19:42.126Z,99515.34
2023-03-02T01:22:09.186Z,99518.88
2023-03-02T01:24:36.210Z,99517.94
2023-03-02T01:27:02.994Z,99519.09
2023-03-02T01:29:30.055Z,99515.63
2023-03-02T01:31:56.992Z,99509.31
2023-03-02T01:34:24.141Z,99500.56
2023-03-02T01:36:51.225Z,99504.03
2023-03-02T01:39:18.470Z,99506.78
2023-03-02T01:41:45.872Z,99504.22
2023-03-02T01:44:57.261Z,99495.53
2023-03-02T01:47:31.238Z,99496.56
2023-03-02T01:49:59.178Z,99495.66
2023-03-02T01:52:26.425Z,99485.16
2023-03-02T01:54:53.949Z,99485.09
2023-03-02T01:57:23.228Z,99487.81
2023-03-02T01:59:51.048Z,99480.97
2023-03-02T02:02:17.805Z,99483.59
2023-03-02T02:04:45.287Z,99473.97
2023-03-02T02:07:12.053Z,99473.06
2023-03-02T02:09:41.606Z,99473.38
2023-03-02T02:12:13.787Z,99478.59
2023-03-02T02:14:40.941Z,99461.69
2023-03-02T02:17:07.774Z,99474.19
2023-03-02T02:20:07.296Z,99470.03
2023-03-02T02:22:40.261Z,99473.41
2023-03-02T02:25:14.966Z,99467.41
2023-03-02T02:27:47.374Z,99464.84
2023-03-02T02:30:14.471Z,99464.72
2023-03-02T02:32:41.408Z,99464.91
2023-03-02T02:35:15.428Z,99461.47
2023-03-02T02:37:43.181Z,99465.94
2023-03-02T02:40:38.397Z,99465.19
2023-03-02T02:43:05.176Z,99466.03
2023-03-02T02:45:32.271Z,99460.09
2023-03-02T02:47:59.316Z,99463.56
2023-03-02T02:50:29.958Z,99465.31
2023-03-02T02:53:01.468Z,99465.53
2023-03-02T02:55:28.556Z,99466.56
2023-03-02T02:57:57.475Z,99464.69
2023-03-02T03:00:24.557Z,99467.34
2023-03-02T03:03:00.295Z,99457.56
2023-03-02T03:05:27.478Z,99462.06
2023-03-02T03:08:09.638Z,99455.22
2023-03-02T03:10:40.080Z,99457.91
2023-03-02T03:13:10.336Z,99454.34
2023-03-02T03:15:37.361Z,99446.56
2023-03-02T03:18:04.340Z,99448.22
2023-03-02T03:20:31.445Z,99448.50
2023-03-02T03:23:00.533Z,99448.53
2023-03-02T03:25:27.675Z,99457.38
2023-03-02T03:27:54.414Z,99446.88
2023-03-02T03:30:22.232Z,99446.78
2023-03-02T03:32:49.016Z,99447.78
2023-03-02T03:35:16.134Z,99449.84
2023-03-02T03:37:43.469Z,99448.00
2023-03-02T03:40:10.799Z,99444.56
2023-03-02T03:42:38.050Z,99449.03
2023-03-02T03:45:06.098Z,99440.09
2023-03-02T03:47:32.877Z,99433.13
2023-03-02T03:49:59.989Z,99430.59
2023-03-02T03:52:32.732Z,99430.59
2023-03-02T03:55:00.312Z,99430.63
2023-03-02T03:57:27.732Z,99427.13
2023-03-02T03:59:54.843Z,99434.31
2023-03-02T04:02:21.748Z,99434.38
2023-03-02T04:04:48.826Z,99433.63
2023-03-02T04:07:15.710Z,99439.91
2023-03-02T04:09:42.778Z,99431.03
2023-03-02T04:12:09.842Z,99431.94
2023-03-02T04:14:36.932Z,99433.00
2023-03-02T04:17:05.514Z,99439.94
2023-03-02T04:19:32.724Z,99439.94
2023-03-02T04:22:01.814Z,99431.19
2023-03-02T04:24:29.122Z,99427.69
2023-03-02T04:26:55.843Z,99428.66
2023-03-02T04:29:23.670Z,99428.66
2023-03-02T04:31:50.545Z,99426.06
2023-03-02T04:34:17.661Z,99421.66
2023-03-02T04:36:44.460Z,99426.09
2023-03-02T04:39:12.865Z,99423.50
2023-03-02T04:41:39.625Z,99421.66
2023-03-02T04:44:06.693Z,99423.63
2023-03-02T04:46:34.655Z,99420.94
2023-03-02T04:49:02.216Z,99423.84
2023-03-02T04:51:31.174Z,99422.00
2023-03-02T04:54:00.144Z,99418.53
2023-03-02T04:56:26.986Z,99413.09
2023-03-02T04:58:54.185Z,99414.03
2023-03-02T05:01:20.974Z,99414.16
2023-03-02T05:03:48.197Z,99414.97
2023-03-02T05:06:15.213Z,99412.53
2023-03-02T05:08:42.683Z,99415.22
2023-03-02T05:11:22.319Z,99418.69
2023-03-02T05:13:50.771Z,99421.44
2023-03-02T05:16:18.169Z,99413.47
2023-03-02T05:18:45.443Z,99417.16
2023-03-02T05:21:12.413Z,99425.06
2023-03-02T05:23:39.420Z,99423.25
2023-03-02T05:26:06.164Z,99417.22
2023-03-02T05:28:33.530Z,99412.84
2023-03-02T05:31:00.459Z,99419.06
2023-03-02T05:33:27.720Z,99428.78
2023-03-02T05:35:54.561Z,99430.63
2023-03-02T05:38:21.628Z,99431.47
2023-03-02T05:40:48.517Z,99427.06
2023-03-02T05:43:18.505Z,99431.56
2023-03-02T05:45:45.357Z,99436.13
2023-03-02T05:48:13.173Z,99434.38
2023-03-02T05:50:40.275Z,99439.72
2023-03-02T05:53:07.373Z,99433.44
2023-03-02T05:55:37.245Z,99438.88
2023-03-02T05:58:06.175Z,99432.66
2023-03-02T06:00:32.992Z,99442.31
2023-03-02T06:03:00.058Z,99435.31
2023-03-02T06:05:26.967Z,99431.72
2023-03-02T06:07:54.033Z,99431.69
2023-03-02T06:10:20.865Z,99434.38
2023-03-02T06:12:47.919Z,99438.84
2023-03-02T06:15:14.677Z,99439.69
2023-03-02T06:17:41.790Z,99443.13
2023-03-02T06:20:11.835Z,99456.41
2023-03-02T06:22:45.186Z,99453.81
2023-03-02T06:25:14.028Z,99443.13
2023-03-02T06:27:41.326Z,99453.75
2023-03-02T06:30:09.704Z,99443.94
2023-03-02T06:32:36.888Z,99450.06
2023-03-02T06:35:04.821Z,99454.41
2023-03-02T06:37:32.054Z,99457.19
2023-03-02T06:39:59.002Z,99452.78
2023-03-02T06:42:26.660Z,99456.28
2023-03-02T06:44:55.096Z,99457.84
2023-03-02T06:47:22.824Z,99456.94
2023-03-02T06:49:49.612Z,99449.63
2023-03-02T06:52:16.794Z,99452.25
2023-03-02T06:54:43.638Z,99447.69
2023-03-02T06:57:10.687Z,99445.78
2023-03-02T06:59:37.436Z,99448.41
2023-03-02T07:02:04.520Z,99454.53
2023-03-02T07:04:32.096Z,99443.78
2023-03-02T07:06:59.156Z,99441.00
2023-03-02T07:09:25.978Z,99443.63
2023-03-02T07:11:53.026Z,99447.81
2023-03-02T07:14:19.745Z,99443.31
2023-03-02T07:16:46.915Z,99445.03
2023-03-02T07:19:16.392Z,99444.78
2023-03-02T07:21:43.503Z,99437.66
2023-03-02T07:24:10.386Z,99440.09
2023-03-02T07:26:37.468Z,99443.34
2023-03-02T07:29:04.263Z,99439.72
2023-03-02T07:31:31.660Z,99438.75
2023-03-02T07:33:58.788Z,99434.22
2023-03-02T07:36:26.422Z,99436.69
2023-03-02T07:38:53.244Z,99434.75
2023-03-02T07:41:20.388Z,99435.44
2023-03-02T07:43:47.123Z,99447.56
2023-03-02T07:46:14.241Z,99441.19
2023-03-02T07:48:41.039Z,99439.25
2023-03-02T07:51:08.186Z,99435.50
2023-03-02T07:53:36.280Z,99429.97
2023-03-02T07:56:09.950Z,99439.47
2023-03-02T07:58:36.802Z,99440.16
2023-03-02T08:01:04.487Z,99437.28
2023-03-02T08:03:31.288Z,99426.44
2023-03-02T08:05:58.389Z,99436.84
2023-03-02T08:08:25.219Z,99428.56
2023-03-02T08:10:52.321Z,99423.09
2023-03-02T08:13:19.078Z,99431.69
2023-03-02T08:15:46.193Z,99427.94
2023-03-02T08:18:12.985Z,99438.25
2023-03-02T08:20:40.176Z,99433.50
2023-03-02T08:23:07.017Z,99427.91
2023-03-02T08:25:34.169Z,99433.00
2023-03-02T08:28:00.900Z,99430.97
2023-03-02T08:30:28.001Z,99428.94
2023-03-02T08:32:54.815Z,99426.91
2023-03-02T08:35:22.276Z,99430.22
2023-03-02T08:37:49.397Z,99422.84
2023-03-02T08:40:16.356Z,99419.91
2023-03-02T08:42:43.445Z,99418.72
2023-03-02T08:45:10.358Z,99425.56
2023-03-02T08:47:37.664Z,99420.72
2023-03-02T08:50:05.618Z,99424.94
2023-03-02T08:52:34.543Z,99422.88
2023-03-02T08:55:03.655Z,99413.63
2023-03-02T08:57:31.058Z,99414.09
2023-03-02T08:59:57.784Z,99424.44
2023-03-02T09:02:24.898Z,99410.78
2023-03-02T09:04:51.850Z,99414.88
2023-03-02T09:07:18.982Z,99418.09
2023-03-02T09:09:45.957Z,99413.28
2023-03-02T09:12:12.999Z,99408.41
2023-03-02T09:14:39.758Z,99404.59
2023-03-02T09:17:06.839Z,99404.19
2023-03-02T09:19:43.277Z,99402.91
2023-03-02T09:22:11.477Z,99402.47
2023-03-02T09:24:38.212Z,99401.22
2023-03-02T09:27:05.281Z,99400.84
2023-03-02T09:29:32.072Z,99404.84
2023-03-02T09:31:59.284Z,99391.06
2023-03-02T09:34:26.120Z,99399.59
2023-03-02T09:36:53.214Z,99396.47
2023-03-02T09:39:19.932Z,99394.28
2023-03-02T09:42:43.457Z,99387.47
2023-03-02T09:45:19.969Z,99387.06
2023-03-02T09:47:53.992Z,99384.88
2023-03-02T09:51:02.392Z,99377.09
2023-03-02T09:54:02.835Z,99385.53
2023-03-02T09:56:29.678Z,99381.38
2023-03-02T09:59:23.999Z,99368.44
2023-03-02T10:02:04.187Z,99365.34
2023-03-02T10:04:34.353Z,99364.78
2023-03-02T10:07:11.770Z,99363.28
2023-03-02T10:09:39.248Z,99360.19
2023-03-02T10:12:43.711Z,99361.19
2023-03-02T10:15:15.243Z,99364.06
2023-03-02T10:18:12.654Z,99362.53
2023-03-02T10:21:00.068Z,99357.38
2023-03-02T10:23:37.898Z,99346.47
2023-03-02T10:26:36.049Z,99340.16
2023-03-02T10:29:21.251Z,99343.13
2023-03-02T10:31:52.764Z,99336.19
2023-03-02T10:34:19.639Z,99338.25
2023-03-02T10:36:47.768Z,99337.81
2023-03-02T10:39:16.425Z,99330.25
2023-03-02T10:41:47.265Z,99331.81
2023-03-02T10:44:37.020Z,99323.13
2023-03-02T10:47:05.073Z,99319.13
2023-03-02T10:49:33.611Z,99316.06
2023-03-02T10:52:15.214Z,99318.38
2023-03-02T10:54:42.486Z,99316.03
2023-03-02T10:57:28.494Z,99312.13
2023-03-02T10:59:58.670Z,99303.75
2023-03-02T11:02:27.608Z,99297.34
2023-03-02T11:05:16.877Z,99297.56
2023-03-02T11:08:02.210Z,99297.16
2023-03-02T11:10:34.193Z,99295.72
2023-03-02T11:13:01.995Z,99287.38
2023-03-02T11:15:31.744Z,99278.06
2023-03-02T11:18:06.072Z,99274.97
2023-03-02T11:20:41.246Z,99269.31
2023-03-02T11:23:36.523Z,99268.84
2023-03-02T11:26:13.459Z,99272.00
2023-03-02T11:29:16.080Z,99268.13
2023-03-02T11:32:01.054Z,99257.75
2023-03-02T11:34:42.865Z,99258.22
2023-03-02T11:37:15.748Z,99259.53
2023-03-02T11:39:55.870Z,99246.63
2023-03-02T11:42:37.719Z,99246.13
2023-03-02T11:45:14.108Z,99240.03
2023-03-02T11:47:57.488Z,99239.91
2023-03-02T11:50:28.366Z,99243.06
2023-03-02T11:52:59.615Z,99229.31
2023-03-02T11:55:27.852Z,99236.00
2023-03-02T11:57:55.494Z,99231.88
2023-03-02T12:00:30.486Z,99227.97
2023-03-02T12:03:00.401Z,99220.25
2023-03-02T12:05:29.401Z,99223.78
2023-03-02T12:08:00.107Z,99218.19
2023-03-02T12:10:36.988Z,99222.53
2023-03-02T12:13:26.320Z,99221.13
2023-03-02T12:15:56.075Z,99218.44
2023-03-02T12:18:22.986Z,99210.13
2023-03-02T12:21:00.172Z,99204.50
2023-03-02T12:23:27.011Z,99206.03
2023-03-02T12:26:05.067Z,99203.88
2023-03-02T12:28:40.804Z,99199.44
2023-03-02T12:31:10.454Z,99189.41
2023-03-02T12:33:48.258Z,99188.66
2023-03-02T12:36:21.383Z,99196.31
2023-03-02T12:38:57.659Z,99179.03
2023-03-02T12:41:31.242Z,99186.59
2023-03-02T12:44:27.898Z,99178.81
2023-03-02T12:46:56.409Z,99172.75
2023-03-02T12:50:22.131Z,99176.22
2023-03-02T12:53:03.500Z,99170.34
2023-03-02T12:55:30.606Z,99161.31
2023-03-02T12:57:59.956Z,99172.63
2023-03-02T13:00:31.565Z,99161.28
2023-03-02T13:02:59.118Z,99163.72
2023-03-02T13:05:27.333Z,99168.25
2023-03-02T13:08:03.765Z,99159.84
2023-03-02T13:10:50.123Z,99157.88
2023-03-02T13:13:28.379Z,99153.34
2023-03-02T13:16:06.467Z,99150.06
2023-03-02T13:18:34.635Z,99146.03
2023-03-02T13:21:02.006Z,99136.75
2023-03-02T13:23:29.830Z,99136.31
2023-03-02T13:25:58.782Z,99133.25
2023-03-02T13:28:36.385Z,99131.31
2023-03-02T13:31:14.591Z,99122.06
2023-03-02T13:33:44.596Z,99119.88
2023-03-02T13:36:24.699Z,99116.22
2023-03-02T13:38:53.364Z,99111.09
2023-03-02T13:41:24.137Z,99113.19
2023-03-02T13:43:51.300Z,99111.13
2023-03-02T13:46:18.030Z,99107.31
2023-03-02T13:49:11.041Z,99107.44
2023-03-02T13:51:46.433Z,99109.41
2023-03-02T13:54:22.254Z,99097.63
2023-03-02T13:56:49.443Z,99101.19
2023-03-02T13:59:17.872Z,99101.91
2023-03-02T14:01:44.809Z,99097.13
2023-03-02T14:04:12.731Z,99090.53
2023-03-02T14:06:39.588Z,99086.84
2023-03-02T14:09:06.667Z,99084.13
2023-03-02T14:11:47.080Z,99077.53
2023-03-02T14:14:18.215Z,99075.56
2023-03-02T14:16:45.015Z,99073.47
2023-03-02T14:19:18.361Z,99071.63
2023-03-02T14:21:46.018Z,99071.28
2023-03-02T14:24:13.160Z,99066.22
2023-03-02T14:26:49.495Z,99058.38
2023-03-02T14:29:23.737Z,99064.28
2023-03-02T14:31:50.834Z,99057.66
2023-03-02T14:37:06.731Z,99056.69
2023-03-02T14:39:44.254Z,99049.41
2023-03-02T14:42:15.101Z,99057.53
2023-03-02T14:44:42.945Z,99057.66
2023-03-02T14:47:10.412Z,99058.50
2023-03-02T14:49:37.898Z,99044.88
2023-03-02T14:52:25.051Z,99052.84
2023-03-02T14:55:00.486Z,99052.13
2023-03-02T14:57:28.976Z,99043.06
2023-03-02T14:59:56.257Z,99051.88
2023-03-02T15:02:26.138Z,99044.03
2023-03-02T15:04:56.812Z,99041.56
2023-03-02T15:07:24.719Z,99038.72
2023-03-02T15:09:51.755Z,99039.97
2023-03-02T15:12:18.504Z,99036.16
2023-03-02T15:14:45.567Z,99038.00
2023-03-02T15:17:12.407Z,99041.78
2023-03-02T15:19:39.554Z,99036.38
2023-03-02T15:22:06.315Z,99037.50
2023-03-02T15:24:33.699Z,99033.94
2023-03-02T15:27:00.593Z,99036.91
2023-03-02T15:29:27.727Z,99035.16
2023-03-02T15:31:54.733Z,99035.16
2023-03-02T15:34:21.897Z,99034.31
2023-03-02T15:36:48.773Z,99040.56
2023-03-02T15:39:16.729Z,99038.72
2023-03-02T15:41:43.548Z,99048.78
2023-03-02T15:44:21.817Z,99044.38
2023-03-02T15:46:49.686Z,99046.19
2023-03-02T15:49:17.094Z,99043.72
2023-03-02T15:51:43.884Z,99042.16
2023-03-02T15:54:11.739Z,99040.41
2023-03-02T15:56:44.079Z,99041.53
2023-03-02T15:59:12.005Z,99039.06
2023-03-02T16:01:38.874Z,99042.13
2023-03-02T16:04:05.994Z,99046.91
2023-03-02T16:06:32.763Z,99037.34
2023-03-02T16:08:59.910Z,99039.28
2023-03-02T16:11:26.711Z,99039.38
2023-03-02T16:13:53.895Z,99044.06
2023-03-02T16:16:20.821Z,99040.72
2023-03-02T16:18:51.954Z,99040.00
2023-03-02T16:21:18.832Z,99049.06
2023-03-02T16:23:46.885Z,99038.50
2023-03-02T16:26:15.216Z,99040.53
2023-03-02T16:28:42.457Z,99045.19
2023-03-02T16:31:11.584Z,99041.88
2023-03-02T16:33:38.776Z,99042.00
2023-03-02T16:36:06.104Z,99044.19
2023-03-02T16:38:33.475Z,99047.84
2023-03-02T16:41:00.200Z,99048.34
2023-03-02T16:43:27.318Z,99043.06
2023-03-02T16:45:54.174Z,99040.59
2023-03-02T16:48:21.526Z,99048.06
2023-03-02T16:50:55.849Z,99050.09
2023-03-02T16:53:22.972Z,99043.22
2023-03-02T16:55:50.583Z,99048.97
2023-03-02T16:58:17.938Z,99047.59
2023-03-02T17:00:44.766Z,99054.94
2023-03-02T17:03:12.148Z,99055.16
2023-03-02T17:05:42.756Z,99058.31
2023-03-02T17:08:10.866Z,99051.56
2023-03-02T17:10:37.792Z,99054.56
2023-03-02T17:13:04.986Z,99056.53
2023-03-02T17:15:31.769Z,99061.41
2023-03-02T17:17:59.144Z,99062.47
2023-03-02T17:20:26.520Z,99062.91
2023-03-02T17:22:53.684Z,99066.94
2023-03-02T17:25:20.484Z,99070.06
2023-03-02T17:27:47.553Z,99072.91
2023-03-02T17:30:14.676Z,99064.03
2023-03-02T17:32:41.854Z,99071.59
2023-03-02T17:35:09.670Z,99064.81
2023-03-02T17:37:36.794Z,99068.59
2023-03-02T17:40:04.644Z,99077.13
2023-03-02T17:42:31.810Z,99073.66
2023-03-02T17:44:58.540Z,99071.31
2023-03-02T17:47:25.730Z,99070.88
2023-03-02T17:49:52.591Z,99068.41
2023-03-02T17:52:20.047Z,99067.84
2023-03-02T17:54:46.826Z,99070.75
2023-03-02T17:57:13.957Z,99073.00
2023-03-02T17:59:40.696Z,99066.22
2023-03-02T18:02:07.812Z,99063.63
2023-03-02T18:04:35.027Z,99070.09
2023-03-02T18:07:02.251Z,99061.47
2023-03-02T18:09:29.026Z,99068.03
2023-03-02T18:11:56.090Z,99067.25
2023-03-02T18:14:24.044Z,99067.81
2023-03-02T18:16:51.175Z,99073.31
2023-03-02T18:19:18.001Z,99068.97
2023-03-02T18:21:45.433Z,99072.97
2023-03-02T18:24:12.167Z,99066.81
2023-03-02T18:26:39.210Z,99071.56
2023-03-02T18:29:06.010Z,99076.38
2023-03-02T18:31:34.329Z,99068.63
2023-03-02T18:34:01.861Z,99074.22
2023-03-02T18:36:29.275Z,99070.00
2023-03-02T18:38:56.086Z,99069.44
2023-03-02T18:41:23.772Z,99071.38
2023-03-02T18:43:50.635Z,99068.13
2023-03-02T18:46:25.890Z,99061.25
2023-03-02T18:48:53.100Z,99077.69
2023-03-02T18:51:20.629Z,99074.16
2023-03-02T18:53:47.781Z,99078.84
2023-03-02T18:56:14.921Z,99081.84
2023-03-02T18:58:41.736Z,99073.13
2023-03-02T19:01:09.007Z,99081.41
2023-03-02T19:03:37.120Z,99077.25
2023-03-02T19:06:05.767Z,99081.13
2023-03-02T19:08:32.724Z,99083.06
2023-03-02T19:10:59.840Z,99091.44
2023-03-02T19:13:26.623Z,99088.94
2023-03-02T19:15:54.827Z,99089.22
2023-03-02T19:18:22.936Z,99092.22
2023-03-02T19:20:50.638Z,99094.13
2023-03-02T19:23:21.881Z,99090.78
2023-03-02T19:25:49.063Z,99088.38
2023-03-02T19:28:16.030Z,99094.84
2023-03-02T19:30:43.163Z,99089.56
2023-03-02T19:33:10.011Z,99089.06
2023-03-02T19:35:40.079Z,99091.84
2023-03-02T19:38:07.213Z,99101.81
2023-03-02T19:40:34.636Z,99101.25
2023-03-02T19:43:01.660Z,99098.66
2023-03-02T19:45:31.493Z,99093.47
2023-03-02T19:47:59.029Z,99102.47
2023-03-02T19:50:26.654Z,99092.13
2023-03-02T19:52:54.909Z,99097.59
2023-03-02T19:55:22.350Z,99096.16
2023-03-02T19:57:51.566Z,99094.53
2023-03-02T20:00:19.481Z,99093.78
2023-03-02T20:02:47.265Z,99091.28
2023-03-02T20:05:14.883Z,99090.50
2023-03-02T20:07:42.179Z,99095.19
2023-03-02T20:10:11.104Z,99098.84
2023-03-02T20:12:37.867Z,99095.00
2023-03-02T20:15:05.995Z,99090.50
2023-03-02T20:17:33.854Z,99092.31
2023-03-02T20:20:01.934Z,99090.84
2023-03-02T20:22:28.715Z,99087.50
2023-03-02T20:24:55.779Z,99091.16
2023-03-02T20:27:22.748Z,99088.56
2023-03-02T20:29:53.453Z,99090.53
2023-03-02T20:32:21.482Z,99092.56
2023-03-02T20:34:48.913Z,99094.66
2023-03-02T20:37:16.010Z,99086.59
2023-03-02T20:39:44.065Z,99084.91
2023-03-02T20:42:11.873Z,99085.94
2023-03-02T20:44:39.031Z,99083.44
2023-03-02T20:47:10.841Z,99083.53
2023-03-02T20:49:37.999Z,99084.84
2023-03-02T20:52:05.205Z,99084.75
2023-03-02T20:54:35.058Z,99079.66
2023-03-02T20:57:01.956Z,99084.19
2023-03-02T20:59:29.084Z,99076.31
2023-03-02T21:01:55.878Z,99074.78
2023-03-02T21:04:23.043Z,99075.72
2023-03-02T21:06:50.492Z,99082.13
2023-03-02T21:09:18.113Z,99071.69
2023-03-02T21:11:45.986Z,99070.03
2023-03-02T21:14:15.992Z,99071.88
2023-03-02T21:16:43.554Z,99072.81
2023-03-02T21:19:14.371Z,99072.13
2023-03-02T21:21:42.580Z,99075.06
2023-03-02T21:24:10.768Z,99075.06
2023-03-02T21:26:37.716Z,99068.09
2023-03-02T21:29:05.371Z,99075.47
2023-03-02T21:31:32.324Z,99076.41
2023-03-02T21:34:00.262Z,99072.19
2023-03-02T21:36:27.217Z,99073.13
2023-03-02T21:38:54.396Z,99073.31
2023-03-02T21:41:21.297Z,99073.66
2023-03-02T21:43:48.527Z,99070.09
2023-03-02T21:46:17.372Z,99062.88
2023-03-02T21:48:44.572Z,99060.03
2023-03-02T21:51:12.324Z,99060.09
2023-03-02T21:53:39.455Z,99055.59
2023-03-02T21:56:06.789Z,99049.13
2023-03-02T21:58:33.977Z,99052.50
2023-03-02T22:01:00.907Z,99047.22
2023-03-02T22:03:28.034Z,99050.44
2023-03-02T22:05:54.785Z,99046.88
2023-03-02T22:08:21.872Z,99055.28
2023-03-02T22:10:50.307Z,99048.28
2023-03-02T22:13:17.486Z,99052.53
2023-03-02T22:15:45.551Z,99055.47
2023-03-02T22:18:17.110Z,99052.06
2023-03-02T22:20:45.182Z,99047.63
2023-03-02T22:23:14.290Z,99055.00
2023-03-02T22:25:41.889Z,99053.34
2023-03-02T22:28:23.414Z,99048.94
2023-03-02T22:30:53.907Z,99048.25
2023-03-02T22:33:23.397Z,99044.47
2023-03-02T22:35:51.098Z,99046.97
2023-03-02T22:38:27.443Z,99043.47
2023-03-02T22:40:54.307Z,99041.94
2023-03-02T22:43:26.441Z,99047.63
2023-03-02T22:45:53.991Z,99044.88
2023-03-02T22:48:22.356Z,99040.56
2023-03-02T22:50:49.837Z,99039.00
2023-03-02T22:53:33.779Z,99042.00
2023-03-02T22:56:02.545Z,99040.19
2023-03-02T22:58:49.041Z,99037.78
2023-03-02T23:01:26.418Z,99031.66
2023-03-02T23:03:57.452Z,99030.94
2023-03-02T23:06:25.476Z,99039.31
2023-03-02T23:08:53.857Z,99030.50
2023-03-02T23:11:21.926Z,99031.69
2023-03-02T23:13:49.385Z,99040.22
2023-03-02T23:16:20.535Z,99026.69
2023-03-02T23:18:48.263Z,99019.59
2023-03-02T23:21:20.722Z,99020.94
2023-03-02T23:23:48.059Z,99028.81
2023-03-02T23:26:14.911Z,99021.41
2023-03-02T23:28:42.026Z,99015.44
2023-03-02T23:31:08.814Z,99010.41
2023-03-02T23:33:35.877Z,99005.75
2023-03-02T23:36:02.598Z,98999.78
2023-03-02T23:38:29.821Z,99003.25
2023-03-02T23:40:56.549Z,99004.69
2023-03-02T23:43:23.758Z,99000.78
2023-03-02T23:45:50.615Z,98998.03
2023-03-02T23:48:17.739Z,99002.06
2023-03-02T23:50:44.939Z,98995.66
2023-03-02T23:53:12.000Z,98998.41
2023-03-02T23:55:39.514Z,99005.59
2023-03-02T23:58:06.576Z,98999.63
